Edmonton International Airport

Airport
ICAO code: 
CYEG
IATA Code: 
YEG
Summary
ICAO Region: 
NAM
Territory: 
Location: 
Edmonton, Alberta
Serving: 
Edmonton
Elevation: 
2373 ft
Coordinates: 
Aerial View: 
53° 18' 28.926" N, 113° 35' 1.565" W
Metar
Observation
CYEG 050200Z 34008KT 20SM FEW110 BKN130 M11/M14 A2984 RMK AC1AC7 AC TR SLP167
Station
Edmonton International, Alta.
Date/Time
2021-12-05 02:00:00
Wind direction
340°
Wind speed
08 kts
Lowest cloud amount
few clouds
Temperature
-11°C
Dew point
-14°C
Humidity
78%
Weather condition
n/a

Description

International airport serving Edmonton, Alberta.

Climatology

Humid Continental climate (Köppen climate classification Dfb) - Variable weather patterns and a large seasonal temperature variance. Summers are often warm and humid with frequent thunderstorms and winters can be very cold with frequent snowfall and persistent snow cover.

Runways

Designator Length Width Surface Rops
12/30 3109 61 ASP Yes/Yes
2/20 3353 61 ASP Yes/Yes
Airport map: 
Aerial View: 

Accidents and Serious Incidents at or in the vicinity of CYEG

SKYbrary Partners:

Safety knowledge contributed by: